createdAt,value
2022-10-13T00:00:17.204Z,97.80
2022-10-13T00:03:06.195Z,89.80
2022-10-13T00:05:35.067Z,95.40
2022-10-13T00:08:03.488Z,86.80
2022-10-13T00:10:31.984Z,95.10
2022-10-13T00:13:00.393Z,89.50
2022-10-13T00:15:28.735Z,96.90
2022-10-13T00:17:57.467Z,93.30
2022-10-13T00:20:26.561Z,92.90
2022-10-13T00:22:54.858Z,92.00
2022-10-13T00:25:23.211Z,97.00
2022-10-13T00:27:51.574Z,104.30
2022-10-13T00:30:20.108Z,86.70
2022-10-13T00:32:48.617Z,83.00
2022-10-13T00:35:17.375Z,97.10
2022-10-13T00:37:45.724Z,92.80
2022-10-13T00:40:14.472Z,91.50
2022-10-13T00:42:42.996Z,82.10
2022-10-13T00:45:22.581Z,88.60
2022-10-13T00:47:54.846Z,90.80
2022-10-13T00:50:26.542Z,92.50
2022-10-13T00:52:56.892Z,87.10
2022-10-13T00:55:29.756Z,84.70
2022-10-13T00:58:04.902Z,81.70
2022-10-13T01:00:34.729Z,93.60
2022-10-13T01:03:03.893Z,92.70
2022-10-13T01:05:35.614Z,98.50
2022-10-13T01:08:04.891Z,89.70
2022-10-13T01:10:42.306Z,96.50
2022-10-13T01:13:15.377Z,81.50
2022-10-13T01:15:49.864Z,76.20
2022-10-13T01:18:22.949Z,72.90
2022-10-13T01:20:58.070Z,75.00
2022-10-13T01:23:47.196Z,80.30
2022-10-13T01:26:30.805Z,76.20
2022-10-13T01:29:12.625Z,81.20
2022-10-13T01:31:46.927Z,86.60
2022-10-13T01:34:20.699Z,74.00
2022-10-13T01:36:55.497Z,76.90
2022-10-13T01:39:29.343Z,81.30
2022-10-13T01:42:11.227Z,73.90
2022-10-13T01:44:43.195Z,84.70
2022-10-13T01:47:12.991Z,85.50
2022-10-13T01:49:41.750Z,70.90
2022-10-13T01:52:14.272Z,70.20
2022-10-13T01:54:42.999Z,81.70
2022-10-13T01:57:31.271Z,86.40
2022-10-13T02:00:00.845Z,72.40
2022-10-13T02:02:34.963Z,71.30
2022-10-13T02:05:12.841Z,66.00
2022-10-13T02:07:46.879Z,75.00
2022-10-13T02:12:49.231Z,65.00
2022-10-13T02:15:21.569Z,69.70
2022-10-13T02:17:50.300Z,65.30
2022-10-13T02:20:22.485Z,65.90
2022-10-13T02:22:58.087Z,79.10
2022-10-13T02:25:26.753Z,74.40
2022-10-13T02:27:56.033Z,85.20
2022-10-13T02:30:26.872Z,75.70
2022-10-13T02:32:55.662Z,78.30
2022-10-13T02:35:23.985Z,75.60
2022-10-13T02:37:52.423Z,68.10
2022-10-13T02:40:21.118Z,67.70
2022-10-13T02:42:49.459Z,65.80
2022-10-13T02:45:18.770Z,65.00
2022-10-13T02:47:47.284Z,72.80
2022-10-13T02:50:16.183Z,71.80
2022-10-13T02:52:44.748Z,73.00
2022-10-13T02:55:13.435Z,69.40
2022-10-13T02:57:41.879Z,68.90
2022-10-13T03:00:13.219Z,75.50
2022-10-13T03:02:41.975Z,71.40
2022-10-13T03:05:11.143Z,62.40
2022-10-13T03:07:39.545Z,72.40
2022-10-13T03:10:10.009Z,65.60
2022-10-13T03:12:38.468Z,66.20
2022-10-13T03:15:09.049Z,56.60
2022-10-13T03:17:37.534Z,76.90
2022-10-13T03:20:10.736Z,67.80
2022-10-13T03:22:39.238Z,64.40
2022-10-13T03:25:09.127Z,74.60
2022-10-13T03:27:37.575Z,72.90
2022-10-13T03:30:08.644Z,68.60
2022-10-13T03:32:37.020Z,63.70
2022-10-13T03:35:06.370Z,64.60
2022-10-13T03:37:35.036Z,68.80
2022-10-13T03:40:03.955Z,64.70
2022-10-13T03:42:33.308Z,65.10
2022-10-13T03:45:01.760Z,59.50
2022-10-13T03:47:30.399Z,64.90
2022-10-13T03:49:58.785Z,60.50
2022-10-13T03:52:27.219Z,61.50
2022-10-13T03:54:55.640Z,49.60
2022-10-13T03:57:24.479Z,63.30
2022-10-13T03:59:55.411Z,57.70
2022-10-13T04:02:23.870Z,62.10
2022-10-13T04:04:52.585Z,60.20
2022-10-13T04:07:21.177Z,67.60
2022-10-13T04:09:49.607Z,68.90
2022-10-13T04:12:20.889Z,63.80
2022-10-13T04:14:49.967Z,60.70
2022-10-13T04:17:18.410Z,69.60
2022-10-13T04:19:46.959Z,70.90
2022-10-13T04:22:16.436Z,72.60
2022-10-13T04:24:44.855Z,78.60
2022-10-13T04:27:16.281Z,77.50
2022-10-13T04:29:44.775Z,74.50
2022-10-13T04:32:15.418Z,67.50
2022-10-13T04:34:44.245Z,64.50
2022-10-13T04:37:13.097Z,65.70
2022-10-13T04:39:41.606Z,68.70
2022-10-13T04:42:10.235Z,65.50
2022-10-13T04:44:38.726Z,66.80
2022-10-13T04:47:07.279Z,72.40
2022-10-13T04:49:35.646Z,68.90
2022-10-13T04:52:04.404Z,79.60
2022-10-13T04:54:33.011Z,96.20
2022-10-13T04:57:01.437Z,55.90
2022-10-13T04:59:29.971Z,79.50
2022-10-13T05:01:58.541Z,77.60
2022-10-13T05:04:27.127Z,71.10
2022-10-13T05:07:18.951Z,76.00
2022-10-13T05:09:44.296Z,71.50
2022-10-13T05:12:12.960Z,81.10
2022-10-13T05:14:41.371Z,65.20
2022-10-13T05:17:09.629Z,77.70
2022-10-13T05:19:38.543Z,69.60
2022-10-13T05:22:06.877Z,76.30
2022-10-13T05:24:38.302Z,70.40
2022-10-13T05:27:09.431Z,81.10
2022-10-13T05:29:37.901Z,71.40
2022-10-13T05:32:08.217Z,67.30
2022-10-13T05:34:36.858Z,72.30
2022-10-13T05:37:05.162Z,64.00
2022-10-13T05:39:33.984Z,62.80
2022-10-13T05:42:02.341Z,68.20
2022-10-13T05:44:30.711Z,63.30
2022-10-13T05:47:02.555Z,76.50
2022-10-13T05:49:35.934Z,70.00
2022-10-13T05:52:08.939Z,65.70
2022-10-13T05:54:40.060Z,81.60
2022-10-13T05:57:13.079Z,67.00
2022-10-13T05:59:43.447Z,77.00
2022-10-13T06:02:14.118Z,60.60
2022-10-13T06:04:45.357Z,60.90
2022-10-13T06:07:13.913Z,60.80
2022-10-13T06:09:42.947Z,53.80
2022-10-13T06:12:11.442Z,60.90
2022-10-13T06:14:41.034Z,62.70
2022-10-13T06:17:10.223Z,57.70
2022-10-13T06:19:39.137Z,59.20
2022-10-13T06:22:07.857Z,63.80
2022-10-13T06:24:36.523Z,57.90
2022-10-13T06:27:05.170Z,54.20
2022-10-13T06:29:33.743Z,57.30
2022-10-13T06:32:03.797Z,59.90
2022-10-13T06:34:34.879Z,57.20
2022-10-13T06:37:03.385Z,56.00
2022-10-13T06:39:36.861Z,53.20
2022-10-13T06:42:07.907Z,59.10
2022-10-13T06:44:36.377Z,57.50
2022-10-13T06:47:05.993Z,57.70
2022-10-13T06:49:34.715Z,62.50
2022-10-13T06:52:11.261Z,56.40
2022-10-13T06:54:39.736Z,51.80
2022-10-13T06:57:09.019Z,54.70
2022-10-13T06:59:37.472Z,59.80
2022-10-13T07:02:06.143Z,56.80
2022-10-13T07:04:35.046Z,48.80
2022-10-13T07:07:06.760Z,53.10
2022-10-13T07:09:35.991Z,49.80
2022-10-13T07:12:04.924Z,57.00
2022-10-13T07:14:33.639Z,59.40
2022-10-13T07:17:02.781Z,67.90
2022-10-13T07:19:31.489Z,44.60
2022-10-13T07:22:00.290Z,52.00
2022-10-13T07:24:28.937Z,59.00
2022-10-13T07:27:02.745Z,49.20
2022-10-13T07:29:34.269Z,71.50
2022-10-13T07:32:03.197Z,52.50
2022-10-13T07:34:32.277Z,60.20
2022-10-13T07:37:02.676Z,55.00
2022-10-13T07:39:33.559Z,57.70
2022-10-13T07:42:04.361Z,40.50
2022-10-13T07:44:34.136Z,49.20
2022-10-13T07:47:02.674Z,59.60
2022-10-13T07:49:31.628Z,57.40
2022-10-13T07:52:00.566Z,53.90
2022-10-13T07:54:39.808Z,51.50
2022-10-13T07:57:08.902Z,52.90
2022-10-13T07:59:37.815Z,50.40
2022-10-13T08:02:06.440Z,54.40
2022-10-13T08:04:35.800Z,52.00
2022-10-13T08:07:07.057Z,54.90
2022-10-13T08:12:11.340Z,57.00
2022-10-13T08:14:39.921Z,49.10
2022-10-13T08:17:09.095Z,55.60
2022-10-13T08:19:39.271Z,48.20
2022-10-13T08:22:10.188Z,52.30
2022-10-13T08:24:41.900Z,47.10
2022-10-13T08:27:12.132Z,49.70
2022-10-13T08:29:42.856Z,42.00
2022-10-13T08:32:14.487Z,41.50
2022-10-13T08:34:43.369Z,36.60
2022-10-13T08:37:15.379Z,37.40
2022-10-13T08:39:44.709Z,39.90
2022-10-13T08:42:18.775Z,33.50
2022-10-13T08:45:28.771Z,38.20
2022-10-13T08:47:47.860Z,32.80
2022-10-13T08:50:20.291Z,35.00
2022-10-13T08:52:53.382Z,33.70
2022-10-13T08:55:28.675Z,35.40
2022-10-13T08:57:59.509Z,32.30
2022-10-13T09:00:30.136Z,33.00
2022-10-13T09:03:08.554Z,27.10
2022-10-13T09:05:48.733Z,30.50
2022-10-13T09:08:21.366Z,31.30
2022-10-13T09:10:52.614Z,29.30
2022-10-13T09:13:21.449Z,25.60
2022-10-13T09:16:04.146Z,24.40
2022-10-13T09:18:39.134Z,23.70
2022-10-13T09:21:18.736Z,24.70
2022-10-13T09:23:50.090Z,25.20
2022-10-13T09:26:22.339Z,24.70
2022-10-13T09:28:52.942Z,18.10
2022-10-13T09:31:26.077Z,28.50
2022-10-13T09:34:03.522Z,24.90
2022-10-13T09:36:32.298Z,21.30
2022-10-13T09:39:11.069Z,22.80
2022-10-13T09:41:40.346Z,20.20
2022-10-13T09:44:12.509Z,16.00
2022-10-13T09:46:52.992Z,15.90
2022-10-13T09:49:44.558Z,21.80
2022-10-13T09:52:22.159Z,14.30
2022-10-13T09:54:56.324Z,11.50
2022-10-13T09:57:30.602Z,14.90
2022-10-13T10:00:06.600Z,12.10
2022-10-13T10:02:38.414Z,17.80
2022-10-13T10:05:14.385Z,12.10
2022-10-13T10:07:44.110Z,11.60
2022-10-13T10:10:26.262Z,12.50
2022-10-13T10:12:55.453Z,10.20
2022-10-13T10:15:30.727Z,11.20
2022-10-13T10:18:01.357Z,12.20
2022-10-13T10:20:46.890Z,11.80
2022-10-13T10:23:21.889Z,14.50
2022-10-13T10:25:54.300Z,14.20
2022-10-13T10:29:03.837Z,13.40
2022-10-13T10:31:53.660Z,8.10
2022-10-13T10:34:31.808Z,10.80
2022-10-13T10:37:11.456Z,13.20
2022-10-13T10:39:47.503Z,12.60
2022-10-13T10:42:36.196Z,15.60
2022-10-13T10:45:14.306Z,10.80
2022-10-13T10:47:45.322Z,11.30
2022-10-13T10:50:19.627Z,11.70
2022-10-13T10:52:56.311Z,13.40
2022-10-13T10:55:30.297Z,12.10
2022-10-13T11:00:29.383Z,12.70
2022-10-13T11:03:04.626Z,11.20
2022-10-13T11:06:05.185Z,11.00
2022-10-13T11:08:41.723Z,13.40
2022-10-13T11:11:38.128Z,13.70
2022-10-13T11:14:28.642Z,10.90
2022-10-13T11:17:17.075Z,9.50
2022-10-13T11:19:51.216Z,6.90
2022-10-13T11:22:23.469Z,14.30
2022-10-13T11:25:19.932Z,9.90
2022-10-13T11:27:49.583Z,9.20
2022-10-13T11:30:47.410Z,10.60
2022-10-13T11:33:36.493Z,9.40
2022-10-13T11:36:49.897Z,9.90
2022-10-13T11:39:47.308Z,6.60
2022-10-13T11:42:29.681Z,9.90
2022-10-13T11:44:59.207Z,17.60
2022-10-13T11:47:53.424Z,9.50
2022-10-13T11:50:28.113Z,9.60
2022-10-13T11:53:15.747Z,12.40
2022-10-13T11:55:49.505Z,6.10
2022-10-13T11:58:21.252Z,14.30
2022-10-13T12:00:56.458Z,6.90
2022-10-13T12:03:37.655Z,9.90
2022-10-13T12:06:18.477Z,9.40
2022-10-13T12:08:52.502Z,11.40
2022-10-13T12:11:25.685Z,11.30
2022-10-13T12:13:54.905Z,7.60
2022-10-13T12:16:23.842Z,12.10
2022-10-13T12:18:55.801Z,11.20
2022-10-13T12:21:30.744Z,8.90
2022-10-13T12:24:11.969Z,8.00
2022-10-13T12:26:40.492Z,11.40
2022-10-13T12:29:13.761Z,6.10
2022-10-13T12:31:44.293Z,9.70
2022-10-13T12:34:19.913Z,11.40
2022-10-13T12:36:54.205Z,11.50
2022-10-13T12:39:25.435Z,8.50
2022-10-13T12:41:55.780Z,9.50
2022-10-13T12:44:28.515Z,6.50
2022-10-13T12:47:01.900Z,10.00
2022-10-13T12:49:38.505Z,14.10
2022-10-13T12:52:11.162Z,10.30
2022-10-13T12:54:46.988Z,11.60
2022-10-13T12:57:19.023Z,7.30
2022-10-13T12:59:49.757Z,7.80
2022-10-13T13:02:22.317Z,7.70
2022-10-13T13:04:51.965Z,8.30
2022-10-13T13:07:37.297Z,12.10
2022-10-13T13:10:17.670Z,9.00
2022-10-13T13:12:47.674Z,9.20
2022-10-13T13:15:33.355Z,6.70
2022-10-13T13:21:49.964Z,10.60
2022-10-13T13:24:35.837Z,10.80
2022-10-13T13:27:20.253Z,7.70
2022-10-13T13:29:51.501Z,10.00
2022-10-13T13:32:22.232Z,12.70
2022-10-13T13:34:55.212Z,9.40
2022-10-13T13:37:32.713Z,10.80
2022-10-13T13:40:07.423Z,8.90
2022-10-13T13:42:36.863Z,13.40
2022-10-13T13:45:06.230Z,11.10
2022-10-13T13:47:35.077Z,14.40
2022-10-13T13:50:04.669Z,8.30
2022-10-13T13:52:33.122Z,16.00
2022-10-13T13:55:01.465Z,9.10
2022-10-13T13:57:30.466Z,11.00
2022-10-13T14:00:02.481Z,16.50
2022-10-13T14:02:32.812Z,10.80
2022-10-13T14:05:04.506Z,10.70
2022-10-13T14:07:34.165Z,9.00
2022-10-13T14:10:03.064Z,9.40
2022-10-13T14:12:36.012Z,13.50
2022-10-13T14:15:09.246Z,11.10
2022-10-13T14:18:10.265Z,11.50
2022-10-13T14:21:29.629Z,10.10
2022-10-13T14:24:24.066Z,12.10
2022-10-13T14:26:58.463Z,11.10
2022-10-13T14:29:30.427Z,8.90
2022-10-13T14:32:00.140Z,11.10
2022-10-13T14:34:30.024Z,12.70
2022-10-13T14:37:00.269Z,10.00
2022-10-13T14:39:30.595Z,11.00
2022-10-13T14:42:02.688Z,8.50
2022-10-13T14:44:33.443Z,12.30
2022-10-13T14:47:02.196Z,12.50
2022-10-13T14:49:30.814Z,13.20
2022-10-13T14:51:59.662Z,9.80
2022-10-13T14:54:29.173Z,9.80
2022-10-13T14:57:00.483Z,11.60
2022-10-13T14:59:30.847Z,9.70
2022-10-13T15:02:02.402Z,10.10
2022-10-13T15:04:31.417Z,14.00
2022-10-13T15:07:00.411Z,9.80
2022-10-13T15:09:44.866Z,21.70
2022-10-13T15:12:24.481Z,10.30
2022-10-13T15:14:58.267Z,12.60
2022-10-13T15:18:11.509Z,16.50
2022-10-13T15:20:47.364Z,12.40
2022-10-13T15:23:18.053Z,15.80
2022-10-13T15:25:54.048Z,9.80
2022-10-13T15:28:25.274Z,9.20
2022-10-13T15:30:55.645Z,8.90
2022-10-13T15:33:26.152Z,17.60
2022-10-13T15:35:56.235Z,13.10
2022-10-13T15:38:30.213Z,12.60
2022-10-13T15:41:22.825Z,12.70
2022-10-13T15:43:56.210Z,14.70
2022-10-13T15:46:28.821Z,9.60
2022-10-13T15:49:19.337Z,9.70
2022-10-13T15:51:57.401Z,13.50
2022-10-13T15:54:43.743Z,8.40
2022-10-13T15:57:12.696Z,7.60
2022-10-13T15:59:42.503Z,9.30
2022-10-13T16:02:11.489Z,13.10
2022-10-13T16:04:41.843Z,8.00
2022-10-13T16:07:11.253Z,12.30
2022-10-13T16:09:40.387Z,11.30
2022-10-13T16:12:09.005Z,13.60
2022-10-13T16:14:38.032Z,10.30
2022-10-13T16:17:07.360Z,12.90
2022-10-13T16:19:35.877Z,15.10
2022-10-13T16:22:04.452Z,14.20
2022-10-13T16:24:33.588Z,14.10
2022-10-13T16:27:02.045Z,19.90
2022-10-13T16:29:31.189Z,14.70
2022-10-13T16:31:59.935Z,14.00
2022-10-13T16:34:40.750Z,14.30
2022-10-13T16:37:09.229Z,19.50
2022-10-13T16:39:42.637Z,15.60
2022-10-13T16:42:12.652Z,16.20
2022-10-13T16:44:41.776Z,15.80
2022-10-13T16:47:13.556Z,16.10
2022-10-13T16:49:44.984Z,17.20
2022-10-13T16:52:15.126Z,28.90
2022-10-13T16:54:43.995Z,27.10
2022-10-13T16:57:13.194Z,21.30
2022-10-13T16:59:41.784Z,21.60
2022-10-13T17:02:14.876Z,25.00
2022-10-13T17:07:12.183Z,29.80
2022-10-13T17:09:41.002Z,20.20
2022-10-13T17:12:09.572Z,21.70
2022-10-13T17:14:38.558Z,23.60
2022-10-13T17:17:11.754Z,23.20
2022-10-13T17:19:40.379Z,28.20
2022-10-13T17:22:08.947Z,27.60
2022-10-13T17:24:37.617Z,32.80
2022-10-13T17:27:08.702Z,41.30
2022-10-13T17:29:37.190Z,53.90
2022-10-13T17:32:07.142Z,50.70
2022-10-13T17:34:36.310Z,43.90
2022-10-13T17:37:05.305Z,44.10
2022-10-13T17:39:33.837Z,48.00
2022-10-13T17:42:02.479Z,36.40
2022-10-13T17:44:31.552Z,41.50
2022-10-13T17:47:02.719Z,38.60
2022-10-13T17:49:31.423Z,42.30
2022-10-13T17:51:59.836Z,37.20
2022-10-13T17:54:28.266Z,38.00
2022-10-13T17:56:56.713Z,40.40
2022-10-13T17:59:25.474Z,36.00
2022-10-13T18:01:54.388Z,40.60
2022-10-13T18:04:23.148Z,43.80
2022-10-13T18:06:51.945Z,38.40
2022-10-13T18:09:22.879Z,36.70
2022-10-13T18:11:53.998Z,43.40
2022-10-13T18:14:27.703Z,30.70
2022-10-13T18:16:58.742Z,43.70
2022-10-13T18:19:27.130Z,39.40
2022-10-13T18:21:59.092Z,38.10
2022-10-13T18:24:31.552Z,35.90
2022-10-13T18:27:00.338Z,44.90
2022-10-13T18:29:29.593Z,49.10
2022-10-13T18:31:58.486Z,40.20
2022-10-13T18:34:27.322Z,44.10
2022-10-13T18:36:55.863Z,49.90
2022-10-13T18:39:26.230Z,46.00
2022-10-13T18:41:55.799Z,44.50
2022-10-13T18:44:26.351Z,40.00
2022-10-13T18:46:55.990Z,42.90
2022-10-13T18:49:30.287Z,42.60
2022-10-13T18:52:00.009Z,41.00
2022-10-13T18:54:29.773Z,54.80
2022-10-13T18:56:58.740Z,54.20
2022-10-13T18:59:27.336Z,46.70
2022-10-13T19:01:56.081Z,53.10
2022-10-13T19:04:25.610Z,49.00
2022-10-13T19:06:55.001Z,46.40
2022-10-13T19:09:25.038Z,42.30
2022-10-13T19:11:56.690Z,47.70
2022-10-13T19:14:26.722Z,48.30
2022-10-13T19:16:59.392Z,47.20
2022-10-13T19:19:31.550Z,45.10
2022-10-13T19:22:00.107Z,45.40
2022-10-13T19:24:28.745Z,46.60
2022-10-13T19:26:58.128Z,45.00
2022-10-13T19:29:27.585Z,48.60
2022-10-13T19:31:56.061Z,54.90
2022-10-13T19:34:24.885Z,47.30
2022-10-13T19:36:58.300Z,53.20
2022-10-13T19:39:27.913Z,42.30
2022-10-13T19:41:58.120Z,59.80
2022-10-13T19:44:26.680Z,50.80
2022-10-13T19:46:56.485Z,44.50
2022-10-13T19:49:25.848Z,50.00
2022-10-13T19:51:55.046Z,57.40
2022-10-13T19:54:24.754Z,52.90
2022-10-13T19:56:53.721Z,51.90
2022-10-13T19:59:22.756Z,57.00
2022-10-13T20:01:51.887Z,53.30
2022-10-13T20:04:20.236Z,52.60
2022-10-13T20:06:49.176Z,51.80
2022-10-13T20:09:19.771Z,55.40
2022-10-13T20:11:49.656Z,49.90
2022-10-13T20:14:18.498Z,54.60
2022-10-13T20:16:47.893Z,52.30
2022-10-13T20:19:18.812Z,55.00
2022-10-13T20:21:47.801Z,66.10
2022-10-13T20:24:16.286Z,61.70
2022-10-13T20:26:44.914Z,52.90
2022-10-13T20:29:13.679Z,59.40
2022-10-13T20:31:42.774Z,55.30
2022-10-13T20:34:11.558Z,54.20
2022-10-13T20:36:40.144Z,51.80
2022-10-13T20:39:09.293Z,52.70
2022-10-13T20:41:37.775Z,57.70
2022-10-13T20:44:06.235Z,54.10
2022-10-13T20:46:34.736Z,47.90
2022-10-13T20:49:12.283Z,36.60
2022-10-13T20:51:42.369Z,57.20
2022-10-13T20:54:12.875Z,59.40
2022-10-13T20:56:41.385Z,53.90
2022-10-13T20:59:11.914Z,49.30
2022-10-13T21:01:40.483Z,53.00
2022-10-13T21:04:10.745Z,53.50
2022-10-13T21:06:39.803Z,50.70
2022-10-13T21:09:08.625Z,57.10
2022-10-13T21:11:39.004Z,64.00
2022-10-13T21:14:09.171Z,60.10
2022-10-13T21:16:40.153Z,61.00
2022-10-13T21:19:09.152Z,58.60
2022-10-13T21:21:39.464Z,54.60
2022-10-13T21:24:09.735Z,55.70
2022-10-13T21:26:40.119Z,59.80
2022-10-13T21:29:08.933Z,55.80
2022-10-13T21:31:38.343Z,56.20
2022-10-13T21:34:06.819Z,34.50
2022-10-13T21:36:35.805Z,60.40
2022-10-13T21:39:05.920Z,64.60
2022-10-13T21:41:35.792Z,41.40
2022-10-13T21:44:04.772Z,50.90
2022-10-13T21:46:34.834Z,51.40
2022-10-13T21:49:05.867Z,48.10
2022-10-13T21:51:36.797Z,51.80
2022-10-13T21:54:08.135Z,48.60
2022-10-13T21:56:37.699Z,51.10
2022-10-13T21:59:10.066Z,44.10
2022-10-13T22:01:38.491Z,48.10
2022-10-13T22:04:07.453Z,42.20
2022-10-13T22:06:36.124Z,52.50
2022-10-13T22:09:05.453Z,49.20
2022-10-13T22:11:38.371Z,40.70
2022-10-13T22:14:07.545Z,46.20
2022-10-13T22:16:38.287Z,47.40
2022-10-13T22:19:07.293Z,47.20
2022-10-13T22:21:38.331Z,44.40
2022-10-13T22:24:09.007Z,40.50
2022-10-13T22:26:40.465Z,40.10
2022-10-13T22:29:11.316Z,42.40
2022-10-13T22:31:40.088Z,38.90
2022-10-13T22:34:08.451Z,32.60
2022-10-13T22:36:39.945Z,41.40
2022-10-13T22:39:12.514Z,32.30
2022-10-13T22:41:41.354Z,43.50
2022-10-13T22:44:10.205Z,42.30
2022-10-13T22:46:39.814Z,43.20
2022-10-13T22:49:08.937Z,40.60
2022-10-13T22:51:37.866Z,40.40
2022-10-13T22:54:06.977Z,46.30
2022-10-13T22:56:35.633Z,33.20
2022-10-13T22:59:06.352Z,44.70
2022-10-13T23:01:35.224Z,49.30
2022-10-13T23:04:03.826Z,43.40
2022-10-13T23:06:33.794Z,41.90
2022-10-13T23:09:04.009Z,45.00
2022-10-13T23:11:33.479Z,38.00
2022-10-13T23:14:02.447Z,30.10
2022-10-13T23:16:31.838Z,33.90
2022-10-13T23:19:03.052Z,43.20
2022-10-13T23:21:31.964Z,36.30
2022-10-13T23:24:02.241Z,45.80
2022-10-13T23:26:31.592Z,32.90
2022-10-13T23:29:01.654Z,38.80
2022-10-13T23:31:30.361Z,40.10
2022-10-13T23:33:59.594Z,43.60
2022-10-13T23:36:30.354Z,37.70
2022-10-13T23:39:00.829Z,33.00
2022-10-13T23:41:33.246Z,34.50
2022-10-13T23:44:02.062Z,38.30
2022-10-13T23:46:30.624Z,35.20
2022-10-13T23:48:59.086Z,37.10
2022-10-13T23:51:27.394Z,42.40
2022-10-13T23:53:56.042Z,28.70
2022-10-13T23:56:25.075Z,37.10
2022-10-13T23:58:53.507Z,46.30
